Pagrindinis puslapis
METAR-TAF:

METAR-TAF

Oro uostai :

Kiurasao, Nyderlandų Antilai

platuma: 12-12N, ilguma: 068-58W, Aukštis: 9 m

Dabartinis oras

Ataskaita buvo paskelbta 1 valandą ir 16 minutes, ne 07:00 UTC
Vėjas 10 kt iš Rytų/Šiaurės Rytų
Temperatūra 28°C
Drėgmė 74%
Slėgis 1008 hPa
Matomumas 10 km arba daugiau
Mažai debesys ne aukštis 1800 ft
Mažai debesys ne aukštis 4800 ft

METAR: TNCC 290700Z 06010KT 9999 FEW018 FEW048 28/23 Q1008 TEMPO 07015KT 5000 SHRA FEW012CB BKN014TCU

Laikas: 04:16 (08:16 UTC)

Prognozė

Ataskaita buvo paskelbta 3 valandos ir 15 minutes, ne 05:01 UTC
Prognozė galioja nuo 29 metu 06 UTC su 30 metu 06 UTC
Vėjas 7 kt iš Rytų
Matomumas 10 km arba daugiau
Išsisklaidę debesys ne aukštis 1800 ft
Tikimybė 40% :
Laikinai
nuo 29 metu 06 UTC su 29 metu 20 UTC
Matomumas: 6000 m
Mažai debesys ne aukštis 1200 ft, Liūtiniai kamuoliniai debesys.
Su prošvaistėmis ne aukštis 1400 ft
lietus

TAF: TNCC 290501Z 2906/3006 08007KT 9999 SCT018 PROB40 TEMPO 2906/2920 6000 SHRA FEW012CB BKN014

Orai ataskaitas ir orų prognozės (METAR, TAF).

turimą stotys yra geltonos ir raudonos taškus žemėlapyje.

Perkelti pele per norėdami pamatyti stoties vardą.

Tada spustelėkite, norėdami matyti oro stebėjimo ir prognozės.

Norėdami pakeisti žemėlapį: spustelėkite ant žalios mygtukų su juodo kryžiaus žemyn,; žalią mygtuką su brūkšneliu, jei norite nutolinti; arba žalių rodyklių gretimoms žemėlapius.


METAR-TAF: